createdAt,value
2022-09-30T00:01:39.826Z,9.50
2022-09-30T00:04:10.173Z,9.50
2022-09-30T00:06:37.823Z,9.50
2022-09-30T00:09:06.066Z,9.60
2022-09-30T00:11:35.515Z,9.60
2022-09-30T00:14:16.243Z,9.60
2022-09-30T00:16:44.642Z,9.60
2022-09-30T00:19:12.746Z,9.60
2022-09-30T00:21:40.727Z,9.70
2022-09-30T00:24:08.988Z,9.70
2022-09-30T00:26:36.996Z,9.80
2022-09-30T00:29:04.884Z,9.70
2022-09-30T00:31:34.717Z,9.70
2022-09-30T00:34:09.472Z,9.60
2022-09-30T00:36:44.023Z,9.60
2022-09-30T00:39:27.065Z,9.70
2022-09-30T00:41:58.702Z,9.70
2022-09-30T00:44:44.919Z,9.80
2022-09-30T00:47:15.490Z,9.80
2022-09-30T00:49:43.037Z,9.80
2022-09-30T00:52:10.788Z,9.80
2022-09-30T00:54:38.434Z,9.70
2022-09-30T00:57:08.951Z,9.80
2022-09-30T00:59:47.817Z,9.90
2022-09-30T01:02:15.854Z,9.90
2022-09-30T01:04:45.014Z,9.90
2022-09-30T01:07:15.183Z,9.90
2022-09-30T01:09:44.577Z,9.80
2022-09-30T01:12:20.802Z,9.80
2022-09-30T01:14:53.286Z,9.80
2022-09-30T01:18:00.097Z,9.70
2022-09-30T01:21:14.212Z,9.70
2022-09-30T01:23:44.715Z,9.70
2022-09-30T01:26:29.816Z,9.80
2022-09-30T01:28:57.410Z,9.80
2022-09-30T01:31:49.095Z,9.80
2022-09-30T01:34:55.350Z,9.90
2022-09-30T01:37:43.032Z,9.90
2022-09-30T01:40:22.647Z,9.90
2022-09-30T01:43:14.275Z,9.90
2022-09-30T01:45:49.020Z,9.80
2022-09-30T01:48:53.732Z,9.80
2022-09-30T01:51:36.684Z,9.80
2022-09-30T01:54:07.059Z,9.80
2022-09-30T01:56:47.788Z,9.80
2022-09-30T01:59:35.102Z,9.80
2022-09-30T02:02:23.415Z,9.80
2022-09-30T02:05:10.365Z,9.80
2022-09-30T02:07:54.657Z,9.80
2022-09-30T02:10:31.455Z,9.80
2022-09-30T02:13:27.915Z,9.80
2022-09-30T02:16:00.641Z,9.80
2022-09-30T02:18:39.282Z,9.80
2022-09-30T02:21:09.226Z,9.90
2022-09-30T02:23:42.824Z,9.80
2022-09-30T02:26:25.086Z,9.90
2022-09-30T02:29:16.808Z,9.80
2022-09-30T02:31:50.620Z,9.80
2022-09-30T02:34:30.478Z,9.80
2022-09-30T02:37:30.400Z,9.70
2022-09-30T02:40:03.546Z,9.80
2022-09-30T02:42:31.863Z,9.80
2022-09-30T02:45:05.883Z,9.80
2022-09-30T02:47:36.410Z,9.70
2022-09-30T02:50:12.730Z,9.70
2022-09-30T02:53:03.042Z,9.80
2022-09-30T02:55:55.082Z,9.80
2022-09-30T02:58:27.708Z,9.80
2022-09-30T03:00:56.069Z,9.80
2022-09-30T03:03:35.388Z,9.90
2022-09-30T03:06:03.760Z,9.90
2022-09-30T03:08:32.711Z,9.80
2022-09-30T03:11:01.508Z,9.80
2022-09-30T03:13:50.734Z,9.80
2022-09-30T03:16:40.806Z,9.80
2022-09-30T03:19:32.746Z,9.80
2022-09-30T03:22:19.271Z,9.80
2022-09-30T03:25:05.714Z,9.80
2022-09-30T03:28:00.389Z,9.90
2022-09-30T03:30:29.562Z,9.90
2022-09-30T03:33:15.150Z,9.90
2022-09-30T03:35:53.798Z,9.80
2022-09-30T03:38:34.017Z,9.80
2022-09-30T03:41:11.729Z,9.80
2022-09-30T03:43:47.597Z,9.80
2022-09-30T03:46:21.804Z,9.80
2022-09-30T03:48:53.052Z,9.80
2022-09-30T03:51:21.749Z,9.70
2022-09-30T03:53:49.419Z,9.70
2022-09-30T03:56:26.030Z,9.70
2022-09-30T03:58:53.862Z,9.80
2022-09-30T04:01:23.231Z,9.80
2022-09-30T04:03:52.394Z,9.80
2022-09-30T04:06:24.998Z,9.80
2022-09-30T04:08:54.048Z,9.80
2022-09-30T04:11:21.719Z,9.80
2022-09-30T04:13:49.340Z,9.80
2022-09-30T04:16:50.614Z,9.80
2022-09-30T04:19:20.858Z,9.80
2022-09-30T04:21:48.542Z,9.70
2022-09-30T04:24:16.222Z,9.80
2022-09-30T04:26:43.797Z,9.70
2022-09-30T04:29:11.417Z,9.70
2022-09-30T04:31:39.086Z,9.70
2022-09-30T04:34:07.023Z,9.70
2022-09-30T04:36:34.647Z,9.70
2022-09-30T04:39:02.322Z,9.70
2022-09-30T04:41:30.002Z,9.70
2022-09-30T04:43:58.025Z,9.70
2022-09-30T04:46:26.033Z,9.70
2022-09-30T04:48:53.687Z,9.80
2022-09-30T04:51:21.885Z,9.80
2022-09-30T04:53:49.728Z,9.70
2022-09-30T04:56:17.403Z,9.70
2022-09-30T04:58:45.206Z,9.70
2022-09-30T05:01:15.775Z,9.70
2022-09-30T05:03:43.562Z,9.70
2022-09-30T05:06:12.132Z,9.80
2022-09-30T05:08:44.679Z,9.80
2022-09-30T05:11:18.861Z,9.80
2022-09-30T05:13:46.877Z,9.80
2022-09-30T05:16:15.642Z,9.90
2022-09-30T05:18:46.330Z,9.80
2022-09-30T05:21:16.911Z,9.80
2022-09-30T05:23:44.549Z,9.80
2022-09-30T05:26:12.919Z,9.70
2022-09-30T05:28:41.973Z,9.70
2022-09-30T05:31:09.991Z,9.80
2022-09-30T05:33:37.749Z,9.70
2022-09-30T05:36:07.599Z,9.80
2022-09-30T05:38:35.413Z,9.80
2022-09-30T05:41:13.751Z,9.80
2022-09-30T05:43:47.871Z,9.70
2022-09-30T05:46:17.076Z,9.70
2022-09-30T05:48:45.085Z,9.70
2022-09-30T05:51:12.860Z,9.70
2022-09-30T05:53:41.299Z,9.70
2022-09-30T05:56:10.791Z,9.70
2022-09-30T05:58:40.676Z,9.80
2022-09-30T06:01:14.667Z,9.90
2022-09-30T06:03:44.069Z,9.90
2022-09-30T06:06:12.880Z,9.80
2022-09-30T06:08:41.439Z,9.80
2022-09-30T06:11:20.773Z,9.80
2022-09-30T06:13:50.230Z,9.80
2022-09-30T06:16:18.947Z,9.80
2022-09-30T06:18:47.098Z,9.90
2022-09-30T06:21:16.186Z,9.90
2022-09-30T06:23:44.435Z,10.00
2022-09-30T06:26:14.550Z,10.10
2022-09-30T06:28:43.998Z,10.10
2022-09-30T06:31:11.897Z,10.10
2022-09-30T06:33:39.589Z,10.10
2022-09-30T06:36:07.308Z,10.20
2022-09-30T06:38:39.998Z,10.10
2022-09-30T06:41:08.295Z,10.00
2022-09-30T06:43:45.842Z,10.10
2022-09-30T06:46:19.965Z,10.20
2022-09-30T06:49:05.874Z,10.30
2022-09-30T06:51:37.323Z,10.30
2022-09-30T06:54:04.974Z,10.40
2022-09-30T06:56:32.675Z,10.30
2022-09-30T06:59:00.236Z,10.30
2022-09-30T07:01:29.973Z,10.30
2022-09-30T07:03:58.243Z,10.30
2022-09-30T07:06:26.466Z,10.40
2022-09-30T07:08:54.759Z,10.30
2022-09-30T07:11:22.350Z,10.40
2022-09-30T07:13:49.940Z,10.40
2022-09-30T07:16:21.367Z,10.40
2022-09-30T07:18:49.101Z,10.40
2022-09-30T07:21:17.086Z,10.40
2022-09-30T07:23:48.627Z,10.40
2022-09-30T07:26:18.167Z,10.40
2022-09-30T07:28:46.227Z,10.30
2022-09-30T07:31:34.659Z,10.40
2022-09-30T07:34:08.246Z,10.50
2022-09-30T07:36:38.351Z,10.50
2022-09-30T07:39:08.685Z,10.40
2022-09-30T07:41:39.142Z,10.50
2022-09-30T07:44:12.501Z,10.50
2022-09-30T07:46:41.289Z,10.70
2022-09-30T07:49:14.493Z,11.00
2022-09-30T07:51:45.948Z,11.10
2022-09-30T07:54:17.521Z,11.30
2022-09-30T07:59:37.458Z,11.10
2022-09-30T08:02:07.483Z,11.30
2022-09-30T08:04:37.237Z,11.20
2022-09-30T08:07:06.927Z,11.10
2022-09-30T08:09:35.079Z,11.20
2022-09-30T08:12:04.422Z,11.40
2022-09-30T08:14:32.102Z,11.70
2022-09-30T08:17:00.895Z,11.40
2022-09-30T08:19:30.529Z,11.40
2022-09-30T08:21:58.687Z,11.50
2022-09-30T08:24:27.266Z,11.20
2022-09-30T08:26:56.182Z,11.20
2022-09-30T08:29:49.997Z,11.20
2022-09-30T08:32:11.830Z,11.10
2022-09-30T08:34:39.493Z,11.20
2022-09-30T08:37:09.561Z,11.20
2022-09-30T08:39:38.556Z,11.30
2022-09-30T08:42:42.440Z,11.10
2022-09-30T08:45:28.405Z,11.40
2022-09-30T08:48:08.041Z,11.60
2022-09-30T08:51:02.112Z,11.80
2022-09-30T08:53:34.485Z,11.70
2022-09-30T08:56:04.572Z,11.70
2022-09-30T08:58:41.455Z,11.80
2022-09-30T09:01:28.425Z,11.80
2022-09-30T09:03:57.822Z,11.80
2022-09-30T09:06:40.078Z,11.70
2022-09-30T09:09:39.105Z,11.70
2022-09-30T09:12:18.840Z,11.70
2022-09-30T09:15:11.408Z,11.70
2022-09-30T09:18:24.589Z,11.70
2022-09-30T09:20:56.709Z,11.60
2022-09-30T09:23:24.959Z,11.60
2022-09-30T09:25:55.772Z,11.60
2022-09-30T09:28:28.036Z,11.60
2022-09-30T09:30:59.748Z,11.80
2022-09-30T09:33:39.731Z,12.00
2022-09-30T09:36:41.517Z,12.10
2022-09-30T09:39:36.977Z,12.20
2022-09-30T09:42:27.999Z,12.20
2022-09-30T09:45:14.673Z,12.10
2022-09-30T09:47:47.431Z,12.10
2022-09-30T09:50:23.611Z,12.10
2022-09-30T09:53:11.119Z,12.10
2022-09-30T09:55:39.319Z,12.10
2022-09-30T09:58:10.159Z,12.00
2022-09-30T10:00:46.701Z,12.00
2022-09-30T10:03:26.757Z,12.10
2022-09-30T10:06:06.913Z,12.10
2022-09-30T10:08:38.855Z,12.30
2022-09-30T10:11:27.667Z,12.40
2022-09-30T10:13:58.547Z,12.40
2022-09-30T10:16:36.672Z,12.30
2022-09-30T10:19:17.352Z,12.30
2022-09-30T10:21:45.142Z,12.30
2022-09-30T10:24:39.699Z,12.40
2022-09-30T10:27:28.042Z,12.40
2022-09-30T10:29:55.710Z,12.60
2022-09-30T10:32:23.743Z,12.60
2022-09-30T10:35:06.331Z,12.70
2022-09-30T10:37:37.174Z,12.80
2022-09-30T10:40:09.610Z,12.90
2022-09-30T10:42:40.765Z,13.00
2022-09-30T10:45:20.786Z,12.90
2022-09-30T10:47:52.429Z,12.70
2022-09-30T10:50:25.151Z,12.50
2022-09-30T10:53:03.704Z,12.30
2022-09-30T10:55:35.177Z,12.20
2022-09-30T10:58:24.929Z,12.10
2022-09-30T11:01:04.723Z,12.20
2022-09-30T11:03:47.217Z,12.30
2022-09-30T11:06:15.614Z,12.40
2022-09-30T11:08:57.809Z,12.60
2022-09-30T11:11:33.694Z,12.80
2022-09-30T11:14:13.179Z,12.90
2022-09-30T11:17:03.809Z,13.10
2022-09-30T11:19:51.147Z,13.10
2022-09-30T11:22:49.286Z,13.10
2022-09-30T11:25:28.163Z,13.20
2022-09-30T11:28:13.747Z,13.10
2022-09-30T11:31:06.169Z,13.10
2022-09-30T11:34:08.388Z,13.00
2022-09-30T11:36:51.249Z,13.00
2022-09-30T11:39:50.036Z,13.00
2022-09-30T11:42:27.470Z,13.00
2022-09-30T11:45:10.028Z,13.00
2022-09-30T11:47:53.642Z,13.00
2022-09-30T11:50:44.364Z,13.00
2022-09-30T11:53:20.922Z,12.90
2022-09-30T11:56:12.747Z,12.90
2022-09-30T11:58:47.140Z,12.90
2022-09-30T12:01:21.849Z,12.90
2022-09-30T12:04:08.776Z,12.90
2022-09-30T12:06:49.240Z,12.90
2022-09-30T12:09:32.263Z,12.90
2022-09-30T12:12:21.269Z,13.00
2022-09-30T12:14:55.318Z,13.00
2022-09-30T12:17:35.137Z,13.00
2022-09-30T12:20:31.630Z,13.10
2022-09-30T12:23:21.023Z,13.20
2022-09-30T12:25:57.123Z,13.20
2022-09-30T12:28:51.591Z,13.10
2022-09-30T12:31:56.823Z,13.10
2022-09-30T12:34:53.548Z,13.10
2022-09-30T12:37:36.184Z,13.00
2022-09-30T12:40:13.645Z,12.90
2022-09-30T12:43:17.634Z,12.90
2022-09-30T12:45:48.314Z,12.90
2022-09-30T12:48:21.233Z,12.90
2022-09-30T12:50:56.123Z,12.80
2022-09-30T12:53:32.890Z,12.90
2022-09-30T12:56:13.694Z,12.90
2022-09-30T12:58:52.273Z,12.90
2022-09-30T13:01:32.713Z,13.00
2022-09-30T13:04:00.353Z,13.00
2022-09-30T13:06:47.879Z,13.10
2022-09-30T13:09:30.249Z,13.10
2022-09-30T13:11:57.826Z,13.10
2022-09-30T13:14:32.237Z,13.20
2022-09-30T13:17:08.950Z,13.20
2022-09-30T13:19:48.486Z,13.30
2022-09-30T13:22:19.339Z,13.30
2022-09-30T13:25:04.612Z,13.30
2022-09-30T13:27:35.257Z,13.30
2022-09-30T13:30:24.263Z,13.30
2022-09-30T13:32:57.735Z,13.40
2022-09-30T13:35:35.714Z,13.40
2022-09-30T13:38:37.108Z,13.40
2022-09-30T13:41:23.759Z,13.30
2022-09-30T13:44:03.392Z,13.30
2022-09-30T13:46:44.092Z,13.30
2022-09-30T13:49:21.706Z,13.20
2022-09-30T13:51:49.690Z,13.10
2022-09-30T13:54:35.906Z,13.20
2022-09-30T13:57:06.444Z,13.20
2022-09-30T13:59:48.611Z,13.30
2022-09-30T14:02:22.151Z,13.20
2022-09-30T14:05:06.389Z,13.30
2022-09-30T14:07:54.218Z,13.30
2022-09-30T14:10:42.119Z,13.20
2022-09-30T14:13:15.987Z,13.20
2022-09-30T14:16:16.073Z,13.20
2022-09-30T14:19:19.407Z,13.20
2022-09-30T14:21:51.734Z,13.20
2022-09-30T14:24:24.208Z,13.20
2022-09-30T14:27:21.227Z,13.10
2022-09-30T14:30:13.362Z,13.10
2022-09-30T14:32:59.655Z,13.20
2022-09-30T14:35:35.747Z,13.20
2022-09-30T14:38:08.456Z,13.20
2022-09-30T14:40:40.283Z,13.20
2022-09-30T14:43:18.446Z,13.20
2022-09-30T14:45:51.041Z,13.20
2022-09-30T14:48:24.154Z,13.20
2022-09-30T14:51:13.673Z,13.20
2022-09-30T14:54:04.481Z,13.20
2022-09-30T14:56:35.952Z,13.20
2022-09-30T14:59:22.168Z,13.10
2022-09-30T15:01:55.612Z,13.00
2022-09-30T15:04:31.907Z,13.00
2022-09-30T15:07:03.631Z,12.80
2022-09-30T15:09:40.059Z,12.90
2022-09-30T15:12:15.887Z,12.90
2022-09-30T15:14:57.970Z,12.90
2022-09-30T15:17:29.986Z,12.80
2022-09-30T15:19:58.930Z,12.80
2022-09-30T15:22:29.149Z,12.70
2022-09-30T15:24:59.840Z,12.60
2022-09-30T15:27:31.332Z,12.50
2022-09-30T15:30:01.929Z,12.50
2022-09-30T15:32:33.432Z,12.50
2022-09-30T15:35:07.184Z,12.40
2022-09-30T15:37:34.954Z,12.30
2022-09-30T15:40:21.459Z,12.30
2022-09-30T15:43:03.296Z,12.30
2022-09-30T15:45:35.821Z,12.30
2022-09-30T15:48:16.953Z,12.30
2022-09-30T15:50:52.813Z,12.30
2022-09-30T15:53:26.460Z,12.30
2022-09-30T15:56:15.755Z,12.20
2022-09-30T15:58:58.523Z,12.20
2022-09-30T16:01:39.395Z,12.10
2022-09-30T16:04:15.360Z,12.00
2022-09-30T16:06:51.929Z,12.00
2022-09-30T16:09:39.481Z,12.00
2022-09-30T16:12:19.580Z,12.00
2022-09-30T16:14:49.381Z,12.00
2022-09-30T16:17:24.600Z,12.00
2022-09-30T16:20:21.675Z,11.90
2022-09-30T16:22:55.145Z,11.90
2022-09-30T16:25:26.483Z,11.90
2022-09-30T16:28:09.271Z,11.90
2022-09-30T16:30:45.995Z,11.90
2022-09-30T16:33:15.482Z,11.80
2022-09-30T16:35:44.292Z,11.80
2022-09-30T16:38:17.255Z,11.80
2022-09-30T16:40:45.006Z,11.80
2022-09-30T16:43:12.647Z,11.80
2022-09-30T16:45:41.636Z,11.80
2022-09-30T16:48:15.952Z,11.80
2022-09-30T16:51:07.765Z,11.80
2022-09-30T16:53:35.608Z,11.70
2022-09-30T16:56:03.646Z,11.70
2022-09-30T16:58:31.862Z,11.70
2022-09-30T17:01:00.574Z,11.70
2022-09-30T17:03:28.377Z,11.70
2022-09-30T17:05:56.043Z,11.70
2022-09-30T17:08:24.259Z,11.70
2022-09-30T17:10:52.250Z,11.70
2022-09-30T17:13:19.928Z,11.70
2022-09-30T17:15:50.106Z,11.60
2022-09-30T17:18:18.419Z,11.60
2022-09-30T17:20:53.152Z,11.60
2022-09-30T17:23:22.566Z,11.50
2022-09-30T17:25:50.688Z,11.50
2022-09-30T17:28:18.576Z,11.50
2022-09-30T17:30:48.286Z,11.50
2022-09-30T17:33:17.855Z,11.50
2022-09-30T17:35:45.649Z,11.50
2022-09-30T17:38:13.894Z,11.50
2022-09-30T17:40:59.885Z,11.50
2022-09-30T17:43:27.599Z,11.50
2022-09-30T17:46:02.417Z,11.50
2022-09-30T17:48:30.102Z,11.50
2022-09-30T17:51:23.398Z,11.50
2022-09-30T17:53:53.537Z,11.50
2022-09-30T17:56:32.285Z,11.50
2022-09-30T17:59:01.991Z,11.50
2022-09-30T18:01:32.628Z,11.50
2022-09-30T18:04:07.705Z,11.40
2022-09-30T18:06:36.083Z,11.40
2022-09-30T18:09:11.574Z,11.50
2022-09-30T18:11:43.354Z,11.40
2022-09-30T18:14:12.796Z,11.40
2022-09-30T18:16:40.590Z,11.40
2022-09-30T18:19:10.610Z,11.40
2022-09-30T18:21:40.007Z,11.40
2022-09-30T18:24:08.056Z,11.40
2022-09-30T18:26:36.210Z,11.40
2022-09-30T18:29:07.914Z,11.40
2022-09-30T18:31:37.967Z,11.40
2022-09-30T18:34:08.854Z,11.40
2022-09-30T18:36:39.764Z,11.40
2022-09-30T18:39:07.628Z,11.40
2022-09-30T18:41:36.862Z,11.40
2022-09-30T18:44:10.635Z,11.40
2022-09-30T18:46:38.320Z,11.40
2022-09-30T18:49:05.966Z,11.50
2022-09-30T18:51:34.571Z,11.50
2022-09-30T18:54:05.399Z,11.40
2022-09-30T18:56:40.766Z,11.40
2022-09-30T18:59:18.293Z,11.40
2022-09-30T19:01:49.526Z,11.40
2022-09-30T19:04:17.259Z,11.40
2022-09-30T19:06:48.678Z,11.40
2022-09-30T19:09:16.721Z,11.30
2022-09-30T19:11:48.025Z,11.20
2022-09-30T19:14:16.086Z,11.20
2022-09-30T19:16:44.819Z,11.20
2022-09-30T19:19:15.438Z,11.20
2022-09-30T19:21:45.093Z,11.20
2022-09-30T19:24:21.971Z,11.20
2022-09-30T19:26:55.676Z,11.20
2022-09-30T19:29:25.298Z,11.10
2022-09-30T19:31:53.078Z,11.10
2022-09-30T19:34:30.324Z,11.20
2022-09-30T19:37:00.026Z,11.20
2022-09-30T19:39:41.192Z,11.10
2022-09-30T19:42:14.498Z,11.10
2022-09-30T19:44:42.342Z,11.10
2022-09-30T19:47:10.225Z,11.10
2022-09-30T19:49:37.956Z,11.10
2022-09-30T19:52:16.115Z,11.10
2022-09-30T19:54:48.969Z,11.10
2022-09-30T19:57:16.633Z,11.10
2022-09-30T19:59:45.230Z,11.10
2022-09-30T20:02:13.592Z,11.10
2022-09-30T20:04:42.715Z,11.20
2022-09-30T20:07:10.375Z,11.10
2022-09-30T20:09:38.199Z,11.10
2022-09-30T20:12:07.132Z,11.10
2022-09-30T20:14:55.000Z,11.10
2022-09-30T20:17:22.988Z,11.10
2022-09-30T20:20:10.933Z,11.10
2022-09-30T20:22:49.500Z,11.20
2022-09-30T20:25:17.129Z,11.20
2022-09-30T20:27:49.672Z,11.20
2022-09-30T20:30:22.755Z,11.20
2022-09-30T20:32:51.770Z,11.30
2022-09-30T20:35:19.575Z,11.30
2022-09-30T20:37:47.888Z,11.30
2022-09-30T20:40:15.995Z,11.20
2022-09-30T20:42:44.076Z,11.00
2022-09-30T20:45:14.622Z,11.10
2022-09-30T20:47:47.540Z,11.10
2022-09-30T20:50:34.998Z,11.10
2022-09-30T20:53:11.486Z,11.10
2022-09-30T20:55:41.068Z,11.10
2022-09-30T20:58:09.801Z,11.00
2022-09-30T21:00:40.304Z,11.00
2022-09-30T21:03:09.676Z,11.00
2022-09-30T21:05:37.936Z,11.00
2022-09-30T21:08:07.336Z,10.90
2022-09-30T21:10:38.838Z,10.80
2022-09-30T21:13:10.771Z,10.80
2022-09-30T21:15:39.594Z,10.80
2022-09-30T21:18:07.711Z,10.80
2022-09-30T21:20:38.509Z,10.80
2022-09-30T21:23:06.194Z,10.80
2022-09-30T21:25:33.957Z,10.80
2022-09-30T21:28:04.857Z,10.70
2022-09-30T21:30:32.564Z,10.60
2022-09-30T21:33:00.262Z,10.50
2022-09-30T21:35:27.945Z,10.50
2022-09-30T21:37:55.540Z,10.50
2022-09-30T21:40:23.260Z,10.60
2022-09-30T21:42:50.968Z,10.60
2022-09-30T21:45:20.101Z,10.70
2022-09-30T21:47:47.741Z,10.60
2022-09-30T21:50:17.597Z,10.60
2022-09-30T21:52:45.416Z,10.60
2022-09-30T21:55:13.799Z,10.60
2022-09-30T21:57:41.397Z,10.50
2022-09-30T22:00:12.310Z,10.50
2022-09-30T22:02:43.788Z,10.60
2022-09-30T22:05:11.481Z,10.60
2022-09-30T22:07:39.369Z,10.60
2022-09-30T22:10:09.088Z,10.60
2022-09-30T22:12:36.845Z,10.50
2022-09-30T22:15:05.033Z,10.60
2022-09-30T22:17:32.674Z,10.60
2022-09-30T22:20:01.110Z,10.60
2022-09-30T22:22:28.777Z,10.60
2022-09-30T22:24:57.041Z,10.50
2022-09-30T22:27:25.002Z,10.60
2022-09-30T22:29:52.750Z,10.60
2022-09-30T22:32:20.399Z,10.60
2022-09-30T22:35:06.502Z,10.70
2022-09-30T22:37:52.655Z,10.70
2022-09-30T22:40:20.197Z,10.60
2022-09-30T22:42:48.982Z,10.60
2022-09-30T22:45:16.676Z,10.60
2022-09-30T22:47:44.315Z,10.70
2022-09-30T22:50:12.475Z,10.70
2022-09-30T22:52:40.166Z,10.80
2022-09-30T22:55:08.144Z,10.80
2022-09-30T22:57:35.801Z,10.80
2022-09-30T23:00:06.326Z,10.70
2022-09-30T23:02:34.521Z,10.70
2022-09-30T23:05:02.455Z,10.80
2022-09-30T23:07:30.800Z,10.80
2022-09-30T23:09:58.458Z,10.80
2022-09-30T23:12:26.169Z,10.80
2022-09-30T23:14:53.920Z,10.80
2022-09-30T23:17:21.549Z,10.90
2022-09-30T23:19:51.344Z,10.80
2022-09-30T23:22:19.927Z,10.80
2022-09-30T23:24:47.521Z,10.90
2022-09-30T23:27:15.195Z,10.80
2022-09-30T23:29:42.878Z,10.80
2022-09-30T23:32:10.561Z,10.80
2022-09-30T23:34:38.184Z,10.80
2022-09-30T23:37:06.106Z,10.80
2022-09-30T23:39:33.701Z,10.80
2022-09-30T23:42:01.316Z,10.80
2022-09-30T23:44:28.925Z,10.80
2022-09-30T23:47:14.879Z,10.80
2022-09-30T23:49:43.182Z,10.80
2022-09-30T23:52:13.182Z,10.80
2022-09-30T23:54:42.351Z,10.90
2022-09-30T23:57:10.813Z,10.80
2022-09-30T23:59:38.797Z,10.80
